createdAt,value
2023-01-20T00:01:40.630Z,96978.75
2023-01-20T00:04:07.382Z,96985.78
2023-01-20T00:06:34.121Z,96993.44
2023-01-20T00:09:03.709Z,96998.56
2023-01-20T00:11:31.090Z,96996.75
2023-01-20T00:14:00.946Z,97001.72
2023-01-20T00:16:29.126Z,96998.31
2023-01-20T00:18:55.898Z,96999.22
2023-01-20T00:21:23.323Z,97007.00
2023-01-20T00:23:50.644Z,97000.13
2023-01-20T00:26:23.408Z,97002.63
2023-01-20T00:28:53.180Z,96998.41
2023-01-20T00:31:30.183Z,97001.78
2023-01-20T00:34:00.166Z,97002.44
2023-01-20T00:36:31.217Z,97003.34
2023-01-20T00:38:58.760Z,97012.69
2023-01-20T00:41:25.537Z,97008.31
2023-01-20T00:43:52.294Z,97015.25
2023-01-20T00:46:19.120Z,97007.56
2023-01-20T00:48:45.911Z,97020.38
2023-01-20T00:51:12.784Z,97034.72
2023-01-20T00:53:39.647Z,97038.19
2023-01-20T00:56:07.498Z,97035.63
2023-01-20T00:58:34.254Z,97038.19
2023-01-20T01:01:01.507Z,97043.41
2023-01-20T01:03:28.699Z,97052.88
2023-01-20T01:06:07.368Z,97045.28
2023-01-20T01:08:35.098Z,97048.50
2023-01-20T01:11:02.267Z,97052.72
2023-01-20T01:13:29.097Z,97058.00
2023-01-20T01:15:55.805Z,97049.66
2023-01-20T01:18:22.560Z,97053.06
2023-01-20T01:20:49.258Z,97060.50
2023-01-20T01:23:15.966Z,97062.06
2023-01-20T01:25:42.751Z,97064.50
2023-01-20T01:28:09.566Z,97060.19
2023-01-20T01:30:36.306Z,97070.28
2023-01-20T01:33:03.106Z,97070.28
2023-01-20T01:35:29.836Z,97060.03
2023-01-20T01:37:56.553Z,97065.97
2023-01-20T01:40:23.355Z,97071.09
2023-01-20T01:42:50.079Z,97059.22
2023-01-20T01:45:24.297Z,97066.16
2023-01-20T01:48:14.910Z,97071.44
2023-01-20T01:50:52.993Z,97075.69
2023-01-20T01:53:20.444Z,97073.19
2023-01-20T01:55:58.687Z,97079.97
2023-01-20T01:58:32.323Z,97079.09
2023-01-20T02:01:00.039Z,97085.72
2023-01-20T02:03:44.880Z,97076.22
2023-01-20T02:06:12.792Z,97078.78
2023-01-20T02:08:40.105Z,97079.53
2023-01-20T02:11:06.992Z,97077.72
2023-01-20T02:13:34.398Z,97081.00
2023-01-20T02:16:14.989Z,97086.13
2023-01-20T02:18:55.949Z,97087.94
2023-01-20T02:22:11.931Z,97087.00
2023-01-20T02:24:57.036Z,97091.88
2023-01-20T02:28:10.392Z,97087.50
2023-01-20T02:31:12.163Z,97085.94
2023-01-20T02:33:47.974Z,97087.50
2023-01-20T02:36:47.229Z,97086.59
2023-01-20T02:39:56.298Z,97087.50
2023-01-20T02:42:39.392Z,97092.63
2023-01-20T02:45:57.214Z,97088.47
2023-01-20T02:48:44.247Z,97087.66
2023-01-20T02:51:23.376Z,97086.75
2023-01-20T02:54:09.548Z,97094.28
2023-01-20T02:56:38.291Z,97088.97
2023-01-20T02:59:21.475Z,97088.84
2023-01-20T03:02:02.399Z,97079.34
2023-01-20T03:04:41.513Z,97087.78
2023-01-20T03:07:11.840Z,97086.06
2023-01-20T03:09:48.050Z,97081.91
2023-01-20T03:12:36.064Z,97080.34
2023-01-20T03:15:03.605Z,97078.75
2023-01-20T03:17:32.277Z,97071.22
2023-01-20T03:19:59.179Z,97084.19
2023-01-20T03:22:25.982Z,97079.16
2023-01-20T03:24:54.527Z,97085.84
2023-01-20T03:27:21.276Z,97085.09
2023-01-20T03:29:48.044Z,97087.81
2023-01-20T03:32:15.479Z,97089.59
2023-01-20T03:34:44.097Z,97092.25
2023-01-20T03:37:12.792Z,97090.59
2023-01-20T03:39:40.274Z,97090.66
2023-01-20T03:42:20.541Z,97094.22
2023-01-20T03:45:05.322Z,97098.50
2023-01-20T03:47:49.308Z,97102.88
2023-01-20T03:51:02.045Z,97101.97
2023-01-20T03:53:45.781Z,97104.53
2023-01-20T03:56:33.155Z,97109.66
2023-01-20T03:59:02.814Z,97112.97
2023-01-20T04:01:37.034Z,97115.53
2023-01-20T04:04:08.764Z,97106.94
2023-01-20T04:06:51.904Z,97106.09
2023-01-20T04:09:29.016Z,97113.03
2023-01-20T04:11:55.749Z,97117.25
2023-01-20T04:14:22.558Z,97113.94
2023-01-20T04:16:54.587Z,97117.50
2023-01-20T04:19:21.903Z,97123.56
2023-01-20T04:21:59.969Z,97121.00
2023-01-20T04:24:45.591Z,97127.03
2023-01-20T04:27:12.353Z,97132.31
2023-01-20T04:29:41.332Z,97128.44
2023-01-20T04:32:10.611Z,97143.97
2023-01-20T04:34:37.386Z,97147.28
2023-01-20T04:37:04.160Z,97140.34
2023-01-20T04:39:30.880Z,97152.25
2023-01-20T04:41:57.621Z,97139.50
2023-01-20T04:44:24.367Z,97155.69
2023-01-20T04:46:51.135Z,97160.75
2023-01-20T04:49:17.835Z,97155.66
2023-01-20T04:51:44.549Z,97165.81
2023-01-20T04:54:11.400Z,97157.97
2023-01-20T04:56:38.100Z,97174.91
2023-01-20T04:59:05.077Z,97179.94
2023-01-20T05:01:32.002Z,97179.88
2023-01-20T05:03:58.787Z,97183.25
2023-01-20T05:06:25.546Z,97187.34
2023-01-20T05:08:52.294Z,97189.16
2023-01-20T05:11:19.356Z,97192.47
2023-01-20T05:13:46.202Z,97191.72
2023-01-20T05:16:13.015Z,97196.88
2023-01-20T05:18:40.091Z,97202.00
2023-01-20T05:21:08.724Z,97207.06
2023-01-20T05:23:35.887Z,97220.53
2023-01-20T05:26:02.733Z,97217.00
2023-01-20T05:28:29.473Z,97224.59
2023-01-20T05:30:56.274Z,97228.91
2023-01-20T05:33:23.054Z,97230.56
2023-01-20T05:35:49.806Z,97230.56
2023-01-20T05:38:16.534Z,97243.19
2023-01-20T05:40:43.254Z,97237.16
2023-01-20T05:43:12.194Z,97237.97
2023-01-20T05:45:39.693Z,97250.59
2023-01-20T05:48:06.459Z,97246.38
2023-01-20T05:50:33.213Z,97246.47
2023-01-20T05:53:00.299Z,97248.19
2023-01-20T05:55:27.070Z,97254.25
2023-01-20T05:57:53.898Z,97253.59
2023-01-20T06:00:21.131Z,97256.16
2023-01-20T06:02:47.984Z,97267.28
2023-01-20T06:05:15.159Z,97258.88
2023-01-20T06:07:42.130Z,97264.72
2023-01-20T06:10:09.744Z,97266.47
2023-01-20T06:12:36.497Z,97274.13
2023-01-20T06:15:04.759Z,97275.13
2023-01-20T06:17:31.536Z,97277.69
2023-01-20T06:19:58.538Z,97282.94
2023-01-20T06:22:26.044Z,97287.91
2023-01-20T06:24:52.887Z,97286.88
2023-01-20T06:27:19.924Z,97276.56
2023-01-20T06:29:46.762Z,97284.47
2023-01-20T06:32:13.492Z,97281.91
2023-01-20T06:34:40.228Z,97285.28
2023-01-20T06:37:06.931Z,97292.06
2023-01-20T06:39:33.664Z,97288.69
2023-01-20T06:42:00.926Z,97293.19
2023-01-20T06:44:28.022Z,97298.44
2023-01-20T06:46:55.068Z,97295.94
2023-01-20T06:49:21.823Z,97290.81
2023-01-20T06:51:49.371Z,97301.06
2023-01-20T06:54:16.317Z,97307.72
2023-01-20T06:56:43.166Z,97304.94
2023-01-20T06:59:13.247Z,97307.34
2023-01-20T07:01:40.562Z,97311.63
2023-01-20T07:04:08.304Z,97309.91
2023-01-20T07:06:39.987Z,97321.66
2023-01-20T07:09:12.317Z,97316.50
2023-01-20T07:11:39.835Z,97318.06
2023-01-20T07:14:07.401Z,97326.50
2023-01-20T07:16:34.923Z,97326.34
2023-01-20T07:19:01.939Z,97333.97
2023-01-20T07:21:29.037Z,97336.44
2023-01-20T07:23:56.223Z,97343.28
2023-01-20T07:26:26.415Z,97340.63
2023-01-20T07:28:53.210Z,97350.78
2023-01-20T07:31:26.749Z,97343.78
2023-01-20T07:33:57.315Z,97351.38
2023-01-20T07:36:24.880Z,97354.69
2023-01-20T07:38:53.588Z,97353.78
2023-01-20T07:41:21.374Z,97358.72
2023-01-20T07:43:50.999Z,97367.91
2023-01-20T07:46:18.932Z,97366.94
2023-01-20T07:48:46.122Z,97371.91
2023-01-20T07:51:15.454Z,97367.56
2023-01-20T07:53:51.514Z,97376.75
2023-01-20T07:56:22.377Z,97377.66
2023-01-20T07:58:50.478Z,97377.66
2023-01-20T08:01:28.177Z,97376.00
2023-01-20T08:03:56.136Z,97388.81
2023-01-20T08:06:25.587Z,97388.81
2023-01-20T08:08:53.831Z,97393.03
2023-01-20T08:11:22.359Z,97394.69
2023-01-20T08:13:49.263Z,97401.31
2023-01-20T08:16:17.793Z,97402.91
2023-01-20T08:18:45.963Z,97396.03
2023-01-20T08:21:30.683Z,97408.81
2023-01-20T08:24:05.405Z,97418.06
2023-01-20T08:26:33.685Z,97413.63
2023-01-20T08:29:07.992Z,97412.66
2023-01-20T08:31:35.644Z,97410.78
2023-01-20T08:34:02.978Z,97410.56
2023-01-20T08:36:33.808Z,97419.09
2023-01-20T08:39:04.615Z,97418.94
2023-01-20T08:41:36.453Z,97427.38
2023-01-20T08:44:06.708Z,97428.13
2023-01-20T08:46:34.449Z,97420.38
2023-01-20T08:49:01.712Z,97437.44
2023-01-20T08:51:32.546Z,97437.25
2023-01-20T08:54:00.685Z,97437.25
2023-01-20T08:56:28.888Z,97448.28
2023-01-20T08:58:59.656Z,97450.00
2023-01-20T09:01:31.650Z,97447.38
2023-01-20T09:04:05.818Z,97452.34
2023-01-20T09:06:46.532Z,97453.06
2023-01-20T09:09:16.876Z,97453.72
2023-01-20T09:11:51.040Z,97462.84
2023-01-20T09:14:24.345Z,97466.16
2023-01-20T09:16:51.902Z,97469.34
2023-01-20T09:19:18.703Z,97465.81
2023-01-20T09:21:45.450Z,97474.25
2023-01-20T09:24:12.374Z,97475.00
2023-01-20T09:26:39.449Z,97481.78
2023-01-20T09:29:15.794Z,97481.78
2023-01-20T09:31:58.093Z,97493.56
2023-01-20T09:34:29.207Z,97489.28
2023-01-20T09:37:21.591Z,97500.22
2023-01-20T09:40:08.088Z,97503.69
2023-01-20T09:43:32.437Z,97507.06
2023-01-20T09:46:18.846Z,97503.59
2023-01-20T09:49:35.854Z,97512.97
2023-01-20T09:52:29.759Z,97511.97
2023-01-20T09:55:21.535Z,97505.91
2023-01-20T09:58:00.993Z,97510.78
2023-01-20T10:00:33.809Z,97520.91
2023-01-20T10:03:14.990Z,97510.34
2023-01-20T10:05:44.687Z,97520.47
2023-01-20T10:08:21.905Z,97524.44
2023-01-20T10:11:01.338Z,97524.38
2023-01-20T10:13:33.867Z,97520.00
2023-01-20T10:16:12.196Z,97528.53
2023-01-20T10:18:57.107Z,97520.75
2023-01-20T10:22:06.860Z,97525.75
2023-01-20T10:24:47.212Z,97524.00
2023-01-20T10:27:14.010Z,97521.44
2023-01-20T10:29:56.739Z,97514.56
2023-01-20T10:32:41.960Z,97520.59
2023-01-20T10:35:22.878Z,97522.25
2023-01-20T10:37:51.311Z,97523.09
2023-01-20T10:40:30.224Z,97527.25
2023-01-20T10:43:03.886Z,97527.31
2023-01-20T10:45:54.034Z,97532.25
2023-01-20T10:48:57.140Z,97529.44
2023-01-20T10:51:53.127Z,97529.94
2023-01-20T10:54:25.956Z,97528.66
2023-01-20T10:56:58.633Z,97526.63
2023-01-20T10:59:37.358Z,97524.75
2023-01-20T11:02:30.774Z,97533.69
2023-01-20T11:05:11.319Z,97536.53
2023-01-20T11:07:38.080Z,97531.69
2023-01-20T11:10:17.885Z,97545.72
2023-01-20T11:12:49.842Z,97540.25
2023-01-20T11:15:41.255Z,97532.81
2023-01-20T11:18:22.428Z,97542.88
2023-01-20T11:21:04.248Z,97540.13
2023-01-20T11:23:57.981Z,97541.88
2023-01-20T11:26:34.344Z,97537.72
2023-01-20T11:29:30.891Z,97542.97
2023-01-20T11:31:59.511Z,97542.78
2023-01-20T11:34:32.255Z,97541.44
2023-01-20T11:37:21.821Z,97535.00
2023-01-20T11:39:54.095Z,97541.06
2023-01-20T11:42:25.200Z,97545.47
2023-01-20T11:45:19.757Z,97543.88
2023-01-20T11:48:00.917Z,97547.34
2023-01-20T11:50:37.912Z,97544.66
2023-01-20T11:53:28.607Z,97543.19
2023-01-20T11:56:01.199Z,97548.31
2023-01-20T11:58:54.643Z,97544.94
2023-01-20T12:01:49.064Z,97544.13
2023-01-20T12:04:52.877Z,97554.34
2023-01-20T12:07:44.343Z,97544.38
2023-01-20T12:10:25.678Z,97541.53
2023-01-20T12:13:03.798Z,97541.06
2023-01-20T12:15:39.583Z,97540.97
2023-01-20T12:18:17.372Z,97552.13
2023-01-20T12:21:00.937Z,97555.22
2023-01-20T12:23:51.412Z,97552.59
2023-01-20T12:26:22.401Z,97565.34
2023-01-20T12:29:08.111Z,97551.00
2023-01-20T12:31:34.904Z,97556.53
2023-01-20T12:34:14.475Z,97549.63
2023-01-20T12:37:03.230Z,97554.66
2023-01-20T12:40:04.866Z,97554.72
2023-01-20T12:42:56.105Z,97562.84
2023-01-20T12:45:53.057Z,97562.94
2023-01-20T12:48:47.497Z,97566.25
2023-01-20T12:51:51.471Z,97559.66
2023-01-20T12:55:00.118Z,97567.66
2023-01-20T12:57:48.810Z,97569.81
2023-01-20T13:00:42.039Z,97588.13
2023-01-20T13:04:14.340Z,97588.28
2023-01-20T13:07:23.984Z,97581.47
2023-01-20T13:10:24.844Z,97587.47
2023-01-20T13:13:48.104Z,97584.19
2023-01-20T13:16:45.901Z,97588.47
2023-01-20T13:19:36.762Z,97589.28
2023-01-20T13:22:21.132Z,97589.28
2023-01-20T13:25:04.574Z,97590.94
2023-01-20T13:27:38.039Z,97595.41
2023-01-20T13:30:07.826Z,97597.59
2023-01-20T13:32:35.743Z,97604.31
2023-01-20T13:35:22.360Z,97609.03
2023-01-20T13:37:54.597Z,97602.31
2023-01-20T13:40:35.605Z,97600.75
2023-01-20T13:43:03.626Z,97617.09
2023-01-20T13:45:30.865Z,97600.06
2023-01-20T13:48:10.914Z,97615.56
2023-01-20T13:50:40.576Z,97616.66
2023-01-20T13:53:24.881Z,97622.13
2023-01-20T13:55:57.472Z,97616.72
2023-01-20T13:58:31.411Z,97629.88
2023-01-20T14:01:10.024Z,97620.00
2023-01-20T14:03:39.574Z,97625.22
2023-01-20T14:06:19.224Z,97632.94
2023-01-20T14:08:51.409Z,97629.47
2023-01-20T14:11:21.976Z,97639.66
2023-01-20T14:14:06.666Z,97631.88
2023-01-20T14:16:36.110Z,97631.69
2023-01-20T14:19:30.924Z,97645.91
2023-01-20T14:22:20.108Z,97644.66
2023-01-20T14:24:52.414Z,97646.53
2023-01-20T14:27:24.594Z,97653.69
2023-01-20T14:29:55.014Z,97657.44
2023-01-20T14:32:29.062Z,97659.00
2023-01-20T14:34:57.449Z,97662.75
2023-01-20T14:37:34.387Z,97662.00
2023-01-20T14:40:12.615Z,97673.28
2023-01-20T14:42:40.771Z,97673.88
2023-01-20T14:45:23.469Z,97666.09
2023-01-20T14:47:51.093Z,97668.75
2023-01-20T14:50:20.194Z,97667.16
2023-01-20T14:52:47.400Z,97672.44
2023-01-20T14:56:01.029Z,97682.06
2023-01-20T14:58:30.483Z,97676.72
2023-01-20T15:01:02.709Z,97679.19
2023-01-20T15:03:30.834Z,97688.44
2023-01-20T15:06:10.405Z,97696.75
2023-01-20T15:08:37.249Z,97690.66
2023-01-20T15:11:18.634Z,97689.50
2023-01-20T15:14:00.769Z,97707.25
2023-01-20T15:16:38.746Z,97696.66
2023-01-20T15:19:17.513Z,97706.53
2023-01-20T15:21:56.973Z,97713.72
2023-01-20T15:24:31.618Z,97711.81
2023-01-20T15:27:01.244Z,97708.91
2023-01-20T15:29:32.479Z,97713.69
2023-01-20T15:32:08.993Z,97713.34
2023-01-20T15:34:35.922Z,97724.00
2023-01-20T15:37:02.997Z,97724.44
2023-01-20T15:39:30.181Z,97728.25
2023-01-20T15:41:58.038Z,97720.75
2023-01-20T15:44:26.552Z,97731.19
2023-01-20T15:46:57.402Z,97729.81
2023-01-20T15:49:25.187Z,97735.28
2023-01-20T15:51:52.194Z,97736.53
2023-01-20T15:54:19.005Z,97744.66
2023-01-20T15:56:45.818Z,97742.41
2023-01-20T15:59:21.003Z,97748.00
2023-01-20T16:01:50.862Z,97753.53
2023-01-20T16:04:17.801Z,97747.78
2023-01-20T16:06:45.244Z,97759.97
2023-01-20T16:09:30.344Z,97766.16
2023-01-20T16:11:57.229Z,97763.88
2023-01-20T16:14:23.940Z,97765.66
2023-01-20T16:16:50.683Z,97771.69
2023-01-20T16:19:17.585Z,97772.59
2023-01-20T16:21:45.612Z,97770.13
2023-01-20T16:24:13.350Z,97782.22
2023-01-20T16:26:41.953Z,97782.50
2023-01-20T16:29:09.340Z,97783.53
2023-01-20T16:31:36.244Z,97779.44
2023-01-20T16:34:04.211Z,97785.44
2023-01-20T16:36:30.979Z,97788.00
2023-01-20T16:38:57.694Z,97786.41
2023-01-20T16:41:28.309Z,97789.91
2023-01-20T16:43:56.359Z,97796.88
2023-01-20T16:46:26.622Z,97796.16
2023-01-20T16:49:01.781Z,97795.47
2023-01-20T16:51:30.863Z,97793.09
2023-01-20T16:53:58.774Z,97800.06
2023-01-20T16:56:32.059Z,97804.50
2023-01-20T16:59:02.276Z,97808.09
2023-01-20T17:01:30.477Z,97812.50
2023-01-20T17:04:00.685Z,97825.22
2023-01-20T17:06:31.424Z,97827.84
2023-01-20T17:09:01.182Z,97826.41
2023-01-20T17:11:37.881Z,97837.75
2023-01-20T17:14:08.085Z,97830.22
2023-01-20T17:16:35.223Z,97830.53
2023-01-20T17:19:02.748Z,97826.44
2023-01-20T17:21:32.390Z,97836.84
2023-01-20T17:24:03.172Z,97848.97
2023-01-20T17:26:30.903Z,97839.78
2023-01-20T17:29:02.224Z,97844.94
2023-01-20T17:31:31.695Z,97851.06
2023-01-20T17:33:58.616Z,97851.25
2023-01-20T17:36:25.441Z,97847.88
2023-01-20T17:38:52.242Z,97846.19
2023-01-20T17:41:19.033Z,97848.94
2023-01-20T17:43:46.457Z,97850.78
2023-01-20T17:46:18.677Z,97853.50
2023-01-20T17:48:46.467Z,97857.06
2023-01-20T17:51:23.559Z,97847.03
2023-01-20T17:53:51.817Z,97861.63
2023-01-20T17:56:21.818Z,97863.59
2023-01-20T17:58:49.878Z,97861.09
2023-01-20T18:01:24.035Z,97863.00
2023-01-20T18:03:53.659Z,97868.19
2023-01-20T18:06:22.559Z,97864.81
2023-01-20T18:08:58.644Z,97864.81
2023-01-20T18:11:28.136Z,97869.09
2023-01-20T18:13:57.273Z,97870.81
2023-01-20T18:16:29.656Z,97870.06
2023-01-20T18:18:58.848Z,97873.59
2023-01-20T18:21:37.232Z,97881.38
2023-01-20T18:24:07.369Z,97885.69
2023-01-20T18:26:37.407Z,97881.50
2023-01-20T18:29:12.139Z,97884.25
2023-01-20T18:31:39.171Z,97883.53
2023-01-20T18:34:09.982Z,97887.88
2023-01-20T18:36:40.906Z,97887.97
2023-01-20T18:39:23.719Z,97888.84
2023-01-20T18:41:51.809Z,97893.22
2023-01-20T18:44:19.939Z,97884.72
2023-01-20T18:46:47.100Z,97884.84
2023-01-20T18:49:19.363Z,97893.50
2023-01-20T18:51:46.304Z,97894.44
2023-01-20T18:54:20.754Z,97902.13
2023-01-20T18:56:47.652Z,97885.28
2023-01-20T18:59:14.490Z,97903.13
2023-01-20T19:01:44.594Z,97895.53
2023-01-20T19:04:12.429Z,97902.41
2023-01-20T19:06:45.202Z,97904.16
2023-01-20T19:09:13.330Z,97901.66
2023-01-20T19:11:41.981Z,97897.56
2023-01-20T19:14:13.780Z,97906.19
2023-01-20T19:16:49.311Z,97911.41
2023-01-20T19:19:17.670Z,97906.28
2023-01-20T19:21:45.156Z,97909.69
2023-01-20T19:24:20.696Z,97916.50
2023-01-20T19:26:47.789Z,97912.41
2023-01-20T19:29:17.407Z,97926.13
2023-01-20T19:31:45.216Z,97920.28
2023-01-20T19:34:12.795Z,97925.47
2023-01-20T19:36:39.673Z,97921.28
2023-01-20T19:39:06.900Z,97932.41
2023-01-20T19:41:35.771Z,97930.72
2023-01-20T19:44:06.508Z,97934.16
2023-01-20T19:46:37.042Z,97934.16
2023-01-20T19:49:04.315Z,97935.09
2023-01-20T19:51:31.272Z,97937.75
2023-01-20T19:54:00.943Z,97929.25
2023-01-20T19:56:31.732Z,97931.81
2023-01-20T19:59:00.667Z,97937.94
2023-01-20T20:01:36.956Z,97930.41
2023-01-20T20:04:10.112Z,97940.63
2023-01-20T20:06:40.520Z,97953.44
2023-01-20T20:09:13.630Z,97950.13
2023-01-20T20:11:40.694Z,97946.94
2023-01-20T20:14:11.619Z,97950.38
2023-01-20T20:16:38.616Z,97951.28
2023-01-20T20:19:11.099Z,97951.34
2023-01-20T20:21:37.905Z,97957.31
2023-01-20T20:24:05.330Z,97957.41
2023-01-20T20:26:35.922Z,97958.28
2023-01-20T20:29:05.526Z,97960.88
2023-01-20T20:31:34.173Z,97966.16
2023-01-20T20:34:04.650Z,97979.00
2023-01-20T20:36:33.270Z,97970.56
2023-01-20T20:39:03.002Z,97992.78
2023-01-20T20:41:31.543Z,97976.72
2023-01-20T20:44:00.857Z,97985.25
2023-01-20T20:46:29.196Z,97983.63
2023-01-20T20:49:01.868Z,97977.78
2023-01-20T20:51:32.212Z,97988.94
2023-01-20T20:54:01.806Z,97992.44
2023-01-20T20:56:32.719Z,97985.75
2023-01-20T20:59:03.108Z,97990.13
2023-01-20T21:01:33.822Z,98002.13
2023-01-20T21:04:02.111Z,97995.47
2023-01-20T21:06:30.670Z,97998.94
2023-01-20T21:08:58.609Z,97999.81
2023-01-20T21:11:25.677Z,98000.63
2023-01-20T21:13:53.238Z,98003.28
2023-01-20T21:16:23.011Z,98005.03
2023-01-20T21:18:52.533Z,98000.00
2023-01-20T21:21:20.369Z,98011.03
2023-01-20T21:23:53.676Z,98008.44
2023-01-20T21:26:21.335Z,98000.09
2023-01-20T21:28:50.754Z,98001.81
2023-01-20T21:31:23.590Z,98010.19
2023-01-20T21:33:58.162Z,98001.75
2023-01-20T21:36:27.490Z,98007.72
2023-01-20T21:38:54.580Z,98708.91
2023-01-20T21:41:21.472Z,98015.63
2023-01-20T21:44:08.618Z,98008.13
2023-01-20T21:46:39.641Z,98016.78
2023-01-20T21:49:28.727Z,98015.22
2023-01-20T21:52:15.354Z,98010.19
2023-01-20T21:54:44.638Z,98006.00
2023-01-20T21:57:11.364Z,98011.97
2023-01-20T21:59:38.166Z,98017.88
2023-01-20T22:02:05.923Z,98009.44
2023-01-20T22:04:33.340Z,98010.28
2023-01-20T22:07:00.453Z,98015.41
2023-01-20T22:09:27.190Z,98018.91
2023-01-20T22:11:53.897Z,98013.94
2023-01-20T22:14:20.637Z,98018.19
2023-01-20T22:16:47.337Z,98024.97
2023-01-20T22:19:14.332Z,98025.00
2023-01-20T22:21:41.832Z,98022.50
2023-01-20T22:24:10.157Z,98026.75
2023-01-20T22:26:37.181Z,98031.81
2023-01-20T22:29:04.026Z,98032.66
2023-01-20T22:31:31.790Z,98025.91
2023-01-20T22:34:04.370Z,98036.91
2023-01-20T22:36:32.101Z,98042.88
2023-01-20T22:38:59.731Z,98042.88
2023-01-20T22:41:26.964Z,98051.41
2023-01-20T22:43:55.255Z,98048.94
2023-01-20T22:46:26.191Z,98055.75
2023-01-20T22:48:55.114Z,98053.25
2023-01-20T22:51:25.247Z,98053.22
2023-01-20T22:53:57.734Z,98051.50
2023-01-20T22:56:28.978Z,98060.75
2023-01-20T22:58:56.995Z,98055.72
2023-01-20T23:01:31.484Z,98066.00
2023-01-20T23:04:01.373Z,98067.72
2023-01-20T23:06:32.502Z,98067.78
2023-01-20T23:09:02.133Z,98057.66
2023-01-20T23:11:29.038Z,98070.41
2023-01-20T23:13:55.799Z,98062.78
2023-01-20T23:16:23.150Z,98063.63
2023-01-20T23:18:51.787Z,98065.34
2023-01-20T23:21:19.986Z,98062.00
2023-01-20T23:23:53.981Z,98062.03
2023-01-20T23:26:24.252Z,98059.59
2023-01-20T23:28:52.693Z,98069.75
2023-01-20T23:31:20.626Z,98068.06
2023-01-20T23:33:47.738Z,98073.13
2023-01-20T23:36:21.803Z,98068.06
2023-01-20T23:38:48.684Z,98069.00
2023-01-20T23:41:16.511Z,98069.91
2023-01-20T23:43:43.442Z,98078.47
2023-01-20T23:46:10.616Z,98077.63
2023-01-20T23:48:38.657Z,98081.91
2023-01-20T23:51:06.797Z,98085.41
2023-01-20T23:53:38.703Z,98083.78
2023-01-20T23:56:24.335Z,98084.66
2023-01-20T23:58:52.163Z,98093.09
